createdAt,value
2023-05-01T00:00:19.320Z,34.69
2023-05-01T00:01:19.339Z,34.68
2023-05-01T00:02:19.497Z,34.70
2023-05-01T00:03:19.486Z,34.68
2023-05-01T00:04:19.613Z,34.75
2023-05-01T00:05:19.513Z,34.68
2023-05-01T00:06:19.519Z,34.71
2023-05-01T00:07:19.564Z,34.70
2023-05-01T00:08:19.577Z,34.70
2023-05-01T00:09:19.633Z,34.73
2023-05-01T00:10:19.653Z,34.70
2023-05-01T00:11:19.695Z,34.73
2023-05-01T00:12:19.814Z,34.71
2023-05-01T00:13:19.758Z,34.71
2023-05-01T00:14:19.800Z,34.71
2023-05-01T00:15:19.843Z,34.73
2023-05-01T00:16:19.925Z,34.69
2023-05-01T00:17:19.904Z,34.73
2023-05-01T00:18:19.949Z,34.74
2023-05-01T00:19:19.985Z,34.77
2023-05-01T00:20:20.021Z,34.70
2023-05-01T00:21:20.064Z,34.75
2023-05-01T00:22:20.080Z,34.70
2023-05-01T00:23:20.111Z,34.73
2023-05-01T00:24:20.113Z,34.75
2023-05-01T00:25:20.162Z,34.69
2023-05-01T00:26:20.223Z,34.79
2023-05-01T00:27:20.239Z,34.74
2023-05-01T00:28:20.267Z,34.77
2023-05-01T00:29:20.289Z,34.75
2023-05-01T00:30:20.338Z,34.77
2023-05-01T00:31:20.399Z,34.78
2023-05-01T00:32:20.509Z,34.75
2023-05-01T00:33:20.460Z,34.75
2023-05-01T00:34:20.453Z,34.74
2023-05-01T00:35:20.533Z,34.74
2023-05-01T00:36:20.571Z,34.79
2023-05-01T00:37:20.577Z,34.73
2023-05-01T00:38:20.616Z,34.77
2023-05-01T00:39:20.699Z,34.75
2023-05-01T00:40:20.668Z,34.74
2023-05-01T00:41:20.700Z,34.78
2023-05-01T00:42:20.762Z,34.78
2023-05-01T00:43:20.811Z,34.78
2023-05-01T00:44:20.827Z,34.78
2023-05-01T00:45:20.845Z,34.77
2023-05-01T00:46:20.907Z,34.75
2023-05-01T00:47:20.919Z,34.74
2023-05-01T00:48:20.949Z,34.79
2023-05-01T00:49:20.972Z,34.74
2023-05-01T00:50:21.032Z,34.73
2023-05-01T00:51:21.037Z,34.77
2023-05-01T00:52:21.062Z,34.78
2023-05-01T00:53:21.132Z,34.78
2023-05-01T00:54:21.138Z,34.79
2023-05-01T00:55:21.168Z,34.78
2023-05-01T00:56:21.199Z,34.75
2023-05-01T00:57:21.259Z,34.78
2023-05-01T00:58:21.268Z,34.78
2023-05-01T00:59:21.298Z,34.76
2023-05-01T01:00:21.317Z,34.78
2023-05-01T01:01:21.387Z,34.79
2023-05-01T01:02:21.408Z,34.78
2023-05-01T01:03:21.411Z,34.79
2023-05-01T01:04:21.519Z,34.79
2023-05-01T01:05:21.567Z,34.82
2023-05-01T01:06:21.623Z,34.80
2023-05-01T01:07:21.621Z,34.83
2023-05-01T01:08:21.594Z,34.80
2023-05-01T01:09:21.677Z,34.80
2023-05-01T01:10:21.707Z,34.81
2023-05-01T01:11:21.712Z,34.81
2023-05-01T01:12:21.732Z,34.83
2023-05-01T01:13:21.751Z,34.81
2023-05-01T01:14:21.806Z,34.81
2023-05-01T01:15:21.833Z,34.79
2023-05-01T01:16:21.882Z,34.79
2023-05-01T01:17:21.928Z,34.81
2023-05-01T01:18:21.991Z,34.79
2023-05-01T01:19:22.094Z,34.83
2023-05-01T01:20:22.050Z,34.81
2023-05-01T01:21:22.071Z,34.84
2023-05-01T01:22:22.119Z,34.80
2023-05-01T01:23:22.170Z,34.84
2023-05-01T01:24:22.168Z,34.80
2023-05-01T01:25:22.228Z,34.83
2023-05-01T01:26:22.244Z,34.84
2023-05-01T01:27:22.306Z,34.85
2023-05-01T01:28:22.354Z,34.81
2023-05-01T01:29:22.348Z,34.83
2023-05-01T01:30:22.416Z,34.86
2023-05-01T01:31:22.441Z,34.84
2023-05-01T01:32:22.506Z,34.83
2023-05-01T01:33:22.497Z,34.83
2023-05-01T01:34:22.563Z,34.85
2023-05-01T01:35:22.631Z,34.83
2023-05-01T01:36:22.688Z,34.82
2023-05-01T01:37:22.662Z,34.83
2023-05-01T01:38:22.748Z,34.85
2023-05-01T01:39:22.738Z,34.81
2023-05-01T01:40:22.796Z,34.84
2023-05-01T01:41:22.812Z,34.84
2023-05-01T01:42:22.844Z,34.83
2023-05-01T01:43:22.895Z,34.88
2023-05-01T01:44:22.933Z,34.85
2023-05-01T01:45:22.996Z,34.84
2023-05-01T01:46:23.078Z,34.85
2023-05-01T01:47:23.078Z,34.85
2023-05-01T01:48:23.091Z,34.81
2023-05-01T01:49:23.137Z,34.81
2023-05-01T01:50:23.201Z,34.84
2023-05-01T01:51:23.237Z,34.85
2023-05-01T01:52:23.245Z,34.83
2023-05-01T01:53:23.283Z,34.85
2023-05-01T01:54:23.331Z,34.85
2023-05-01T01:55:23.372Z,34.86
2023-05-01T01:56:23.409Z,34.86
2023-05-01T01:57:23.446Z,34.88
2023-05-01T01:58:23.470Z,34.81
2023-05-01T01:59:23.521Z,34.89
2023-05-01T02:00:23.595Z,34.85
2023-05-01T02:01:23.586Z,34.88
2023-05-01T02:02:23.721Z,34.87
2023-05-01T02:03:23.772Z,34.86
2023-05-01T02:04:23.723Z,34.82
2023-05-01T02:05:23.777Z,34.85
2023-05-01T02:06:23.825Z,34.85
2023-05-01T02:07:23.865Z,34.84
2023-05-01T02:08:23.907Z,34.82
2023-05-01T02:09:23.928Z,34.85
2023-05-01T02:10:24.003Z,34.81
2023-05-01T02:11:24.008Z,34.86
2023-05-01T02:12:24.079Z,34.86
2023-05-01T02:13:24.108Z,34.88
2023-05-01T02:14:24.194Z,34.86
2023-05-01T02:15:24.193Z,34.86
2023-05-01T02:16:24.307Z,34.89
2023-05-01T02:17:24.325Z,34.90
2023-05-01T02:18:24.337Z,34.89
2023-05-01T02:19:24.384Z,34.89
2023-05-01T02:20:24.429Z,34.86
2023-05-01T02:21:24.485Z,34.84
2023-05-01T02:22:24.553Z,34.88
2023-05-01T02:23:24.588Z,34.84
2023-05-01T02:24:24.658Z,34.89
2023-05-01T02:25:24.679Z,34.85
2023-05-01T02:26:24.745Z,34.85
2023-05-01T02:27:24.780Z,34.89
2023-05-01T02:28:24.840Z,34.88
2023-05-01T02:29:24.859Z,34.89
2023-05-01T02:30:24.922Z,34.87
2023-05-01T02:31:25.004Z,34.85
2023-05-01T02:32:25.043Z,34.86
2023-05-01T02:33:25.033Z,34.90
2023-05-01T02:34:25.083Z,34.86
2023-05-01T02:35:25.137Z,34.90
2023-05-01T02:36:25.195Z,34.92
2023-05-01T02:37:25.219Z,34.90
2023-05-01T02:38:25.269Z,34.87
2023-05-01T02:39:25.300Z,34.92
2023-05-01T02:40:25.363Z,34.91
2023-05-01T02:41:25.387Z,34.89
2023-05-01T02:42:25.452Z,34.86
2023-05-01T02:43:25.510Z,34.87
2023-05-01T02:44:25.525Z,34.87
2023-05-01T02:45:25.600Z,34.90
2023-05-01T02:46:25.735Z,34.89
2023-05-01T02:47:25.731Z,34.88
2023-05-01T02:48:25.740Z,34.90
2023-05-01T02:49:25.802Z,34.87
2023-05-01T02:50:25.829Z,34.91
2023-05-01T02:51:25.875Z,34.89
2023-05-01T02:52:25.918Z,34.89
2023-05-01T02:53:25.944Z,34.89
2023-05-01T02:54:25.979Z,34.89
2023-05-01T02:55:26.025Z,34.89
2023-05-01T02:56:26.055Z,34.90
2023-05-01T02:57:26.129Z,34.89
2023-05-01T02:58:26.166Z,34.87
2023-05-01T02:59:26.199Z,34.91
2023-05-01T03:00:26.231Z,34.89
2023-05-01T03:01:26.341Z,34.89
2023-05-01T03:02:26.325Z,34.89
2023-05-01T03:03:26.369Z,34.87
2023-05-01T03:04:26.496Z,34.93
2023-05-01T03:05:26.462Z,34.89
2023-05-01T03:06:26.561Z,34.90
2023-05-01T03:07:26.581Z,34.85
2023-05-01T03:08:26.618Z,34.91
2023-05-01T03:09:26.699Z,34.88
2023-05-01T03:10:26.692Z,34.90
2023-05-01T03:11:26.771Z,34.89
2023-05-01T03:12:26.789Z,34.89
2023-05-01T03:13:26.858Z,34.93
2023-05-01T03:14:26.883Z,34.93
2023-05-01T03:15:26.946Z,34.86
2023-05-01T03:16:27.085Z,34.90
2023-05-01T03:17:27.069Z,34.89
2023-05-01T03:18:27.103Z,34.90
2023-05-01T03:19:27.115Z,34.93
2023-05-01T03:20:27.658Z,34.89
2023-05-01T03:21:27.210Z,34.87
2023-05-01T03:22:27.279Z,34.90
2023-05-01T03:23:27.293Z,34.90
2023-05-01T03:24:27.335Z,34.90
2023-05-01T03:25:27.407Z,34.93
2023-05-01T03:26:27.435Z,34.94
2023-05-01T03:27:27.489Z,34.96
2023-05-01T03:28:27.538Z,34.94
2023-05-01T03:29:27.587Z,34.94
2023-05-01T03:30:27.634Z,34.90
2023-05-01T03:31:27.711Z,34.91
2023-05-01T03:32:27.882Z,34.88
2023-05-01T03:33:27.804Z,34.91
2023-05-01T03:34:27.851Z,34.88
2023-05-01T03:35:27.947Z,34.90
2023-05-01T03:36:27.947Z,34.96
2023-05-01T03:37:28.003Z,34.92
2023-05-01T03:38:28.036Z,34.87
2023-05-01T03:39:28.099Z,34.94
2023-05-01T03:40:28.146Z,34.94
2023-05-01T03:41:28.217Z,34.92
2023-05-01T03:42:28.256Z,34.90
2023-05-01T03:43:28.299Z,34.94
2023-05-01T03:44:28.346Z,34.88
2023-05-01T03:45:28.391Z,34.95
2023-05-01T03:46:28.487Z,34.92
2023-05-01T03:47:28.533Z,34.95
2023-05-01T03:48:28.552Z,34.94
2023-05-01T03:49:28.606Z,34.92
2023-05-01T03:50:28.642Z,34.92
2023-05-01T03:51:28.697Z,34.90
2023-05-01T03:52:28.741Z,34.95
2023-05-01T03:53:28.792Z,34.91
2023-05-01T03:54:28.849Z,34.95
2023-05-01T03:55:28.939Z,34.88
2023-05-01T03:56:28.985Z,34.94
2023-05-01T03:57:29.009Z,34.95
2023-05-01T03:58:29.046Z,34.96
2023-05-01T03:59:29.115Z,34.95
2023-05-01T04:00:29.162Z,34.96
2023-05-01T04:01:29.184Z,34.92
2023-05-01T04:02:29.383Z,34.88
2023-05-01T04:03:29.362Z,34.91
2023-05-01T04:04:29.569Z,34.93
2023-05-01T04:05:29.392Z,34.95
2023-05-01T04:06:29.521Z,34.96
2023-05-01T04:07:29.550Z,34.95
2023-05-01T04:08:29.574Z,34.96
2023-05-01T04:09:29.618Z,35.00
2023-05-01T04:10:29.710Z,34.93
2023-05-01T04:11:29.721Z,34.94
2023-05-01T04:12:29.795Z,34.95
2023-05-01T04:13:29.818Z,34.96
2023-05-01T04:14:29.893Z,34.95
2023-05-01T04:15:29.965Z,34.99
2023-05-01T04:16:30.045Z,34.95
2023-05-01T04:17:30.030Z,34.91
2023-05-01T04:18:30.107Z,34.96
2023-05-01T04:19:30.129Z,34.94
2023-05-01T04:20:30.205Z,34.93
2023-05-01T04:21:30.278Z,34.93
2023-05-01T04:22:30.274Z,34.99
2023-05-01T04:23:30.314Z,34.95
2023-05-01T04:24:30.377Z,34.93
2023-05-01T04:25:30.406Z,34.96
2023-05-01T04:26:30.487Z,34.92
2023-05-01T04:27:30.525Z,34.90
2023-05-01T04:28:30.597Z,34.95
2023-05-01T04:29:30.650Z,34.95
2023-05-01T04:30:30.697Z,34.96
2023-05-01T04:31:30.827Z,34.95
2023-05-01T04:32:30.885Z,34.92
2023-05-01T04:33:30.843Z,34.92
2023-05-01T04:34:30.884Z,34.96
2023-05-01T04:35:30.934Z,34.96
2023-05-01T04:36:30.995Z,34.97
2023-05-01T04:37:31.065Z,34.97
2023-05-01T04:38:31.106Z,34.93
2023-05-01T04:39:31.138Z,34.96
2023-05-01T04:40:31.192Z,34.95
2023-05-01T04:41:31.264Z,34.96
2023-05-01T04:42:31.350Z,34.95
2023-05-01T04:43:31.376Z,35.00
2023-05-01T04:44:31.426Z,34.93
2023-05-01T04:45:31.450Z,34.93
2023-05-01T04:46:31.529Z,34.93
2023-05-01T04:47:31.663Z,34.95
2023-05-01T04:48:31.637Z,34.96
2023-05-01T04:49:31.672Z,34.96
2023-05-01T04:50:31.746Z,34.91
2023-05-01T04:51:31.782Z,34.91
2023-05-01T04:52:31.885Z,34.95
2023-05-01T04:53:31.937Z,34.91
2023-05-01T04:54:31.957Z,34.92
2023-05-01T04:55:32.033Z,34.91
2023-05-01T04:56:32.067Z,34.92
2023-05-01T04:57:32.168Z,34.93
2023-05-01T04:58:32.165Z,34.90
2023-05-01T04:59:32.223Z,34.92
2023-05-01T05:00:32.281Z,34.93
2023-05-01T05:01:32.397Z,34.91
2023-05-01T05:02:32.455Z,34.91
2023-05-01T05:03:32.536Z,34.90
2023-05-01T05:04:32.500Z,34.91
2023-05-01T05:05:32.554Z,34.91
2023-05-01T05:06:32.617Z,34.87
2023-05-01T05:07:32.639Z,34.87
2023-05-01T05:08:32.690Z,34.89
2023-05-01T05:09:32.734Z,34.89
2023-05-01T05:10:32.815Z,34.89
2023-05-01T05:11:32.854Z,34.83
2023-05-01T05:12:32.922Z,34.86
2023-05-01T05:13:32.939Z,34.88
2023-05-01T05:14:33.011Z,34.87
2023-05-01T05:15:33.071Z,34.90
2023-05-01T05:16:33.157Z,34.89
2023-05-01T05:17:33.219Z,34.87
2023-05-01T05:18:33.223Z,34.86
2023-05-01T05:19:33.294Z,34.85
2023-05-01T05:20:33.344Z,34.89
2023-05-01T05:21:33.434Z,34.83
2023-05-01T05:22:33.464Z,34.85
2023-05-01T05:23:33.489Z,34.82
2023-05-01T05:24:33.537Z,34.85
2023-05-01T05:25:33.624Z,34.87
2023-05-01T05:26:33.683Z,34.86
2023-05-01T05:27:33.710Z,34.85
2023-05-01T05:28:33.768Z,34.81
2023-05-01T05:29:33.807Z,34.84
2023-05-01T05:30:33.856Z,34.82
2023-05-01T05:31:33.956Z,34.82
2023-05-01T05:32:34.020Z,34.82
2023-05-01T05:33:33.996Z,34.82
2023-05-01T05:34:34.034Z,34.85
2023-05-01T05:35:34.115Z,34.84
2023-05-01T05:36:34.384Z,34.85
2023-05-01T05:37:34.217Z,34.81
2023-05-01T05:38:34.228Z,34.88
2023-05-01T05:39:34.286Z,34.81
2023-05-01T05:40:34.335Z,34.79
2023-05-01T05:41:34.387Z,34.82
2023-05-01T05:42:34.431Z,34.82
2023-05-01T05:43:34.476Z,34.81
2023-05-01T05:44:34.527Z,34.84
2023-05-01T05:45:34.578Z,34.80
2023-05-01T05:46:34.653Z,34.84
2023-05-01T05:47:34.669Z,34.77
2023-05-01T05:48:34.735Z,34.80
2023-05-01T05:49:34.791Z,34.84
2023-05-01T05:50:34.839Z,34.80
2023-05-01T05:51:34.875Z,34.80
2023-05-01T05:52:34.920Z,34.79
2023-05-01T05:53:34.980Z,34.85
2023-05-01T05:54:35.017Z,34.81
2023-05-01T05:55:35.071Z,34.79
2023-05-01T05:56:35.124Z,34.85
2023-05-01T05:57:35.193Z,34.84
2023-05-01T05:58:35.217Z,34.79
2023-05-01T05:59:35.269Z,34.79
2023-05-01T06:00:35.300Z,34.80
2023-05-01T06:01:35.341Z,34.80
2023-05-01T06:02:35.529Z,34.84
2023-05-01T06:03:35.631Z,34.83
2023-05-01T06:04:35.514Z,34.79
2023-05-01T06:05:35.621Z,34.79
2023-05-01T06:06:35.604Z,34.77
2023-05-01T06:07:35.624Z,34.79
2023-05-01T06:08:35.689Z,34.76
2023-05-01T06:09:35.702Z,34.78
2023-05-01T06:10:35.747Z,34.78
2023-05-01T06:11:35.809Z,34.76
2023-05-01T06:12:37.863Z,34.80
2023-05-01T06:13:36.858Z,34.73
2023-05-01T06:14:35.823Z,34.80
2023-05-01T06:15:35.823Z,34.74
2023-05-01T06:16:35.943Z,34.74
2023-05-01T06:17:35.843Z,34.74
2023-05-01T06:18:35.812Z,34.75
2023-05-01T06:19:35.782Z,34.71
2023-05-01T06:20:35.790Z,34.78
2023-05-01T06:21:35.787Z,34.75
2023-05-01T06:22:35.786Z,34.71
2023-05-01T06:23:35.801Z,34.73
2023-05-01T06:24:35.775Z,34.70
2023-05-01T06:25:35.808Z,34.69
2023-05-01T06:26:35.839Z,34.73
2023-05-01T06:27:35.881Z,34.68
2023-05-01T06:28:35.907Z,34.69
2023-05-01T06:29:35.939Z,34.65
2023-05-01T06:30:35.977Z,34.67
2023-05-01T06:31:36.079Z,34.65
2023-05-01T06:32:36.061Z,34.72
2023-05-01T06:33:36.113Z,34.68
2023-05-01T06:34:36.159Z,34.70
2023-05-01T06:35:36.161Z,34.64
2023-05-01T06:36:36.227Z,34.68
2023-05-01T06:37:36.234Z,34.71
2023-05-01T06:38:36.263Z,34.71
2023-05-01T06:39:36.324Z,34.61
2023-05-01T06:40:36.342Z,34.65
2023-05-01T06:41:36.366Z,34.63
2023-05-01T06:42:36.422Z,34.66
2023-05-01T06:43:36.444Z,34.65
2023-05-01T06:44:36.495Z,34.63
2023-05-01T06:45:36.505Z,34.65
2023-05-01T06:46:36.586Z,34.63
2023-05-01T06:47:36.606Z,34.65
2023-05-01T06:48:36.600Z,34.62
2023-05-01T06:49:36.648Z,34.62
2023-05-01T06:50:36.677Z,34.67
2023-05-01T06:51:36.700Z,34.59
2023-05-01T06:52:36.751Z,34.69
2023-05-01T06:53:36.780Z,34.66
2023-05-01T06:54:36.861Z,34.63
2023-05-01T06:55:36.848Z,34.64
2023-05-01T06:56:36.894Z,34.62
2023-05-01T06:57:36.940Z,34.62
2023-05-01T06:58:36.984Z,34.64
2023-05-01T06:59:37.000Z,34.64
2023-05-01T07:00:37.042Z,34.60
2023-05-01T07:01:37.120Z,34.65
2023-05-01T07:02:37.226Z,34.61
2023-05-01T07:03:37.179Z,34.61
2023-05-01T07:04:37.175Z,34.64
2023-05-01T07:05:37.211Z,34.66
2023-05-01T07:06:37.368Z,34.66
2023-05-01T07:07:38.935Z,34.65
2023-05-01T07:08:37.274Z,34.62
2023-05-01T07:09:37.295Z,34.66
2023-05-01T07:10:38.219Z,34.66
2023-05-01T07:11:37.242Z,34.65
2023-05-01T07:12:37.240Z,34.65
2023-05-01T07:13:37.272Z,34.69
2023-05-01T07:14:37.246Z,34.69
2023-05-01T07:15:37.239Z,34.70
2023-05-01T07:16:37.325Z,34.70
2023-05-01T07:17:37.302Z,34.70
2023-05-01T07:18:37.225Z,34.67
2023-05-01T07:19:37.220Z,34.67
2023-05-01T07:20:37.186Z,34.68
2023-05-01T07:21:37.210Z,34.70
2023-05-01T07:22:37.189Z,34.69
2023-05-01T07:23:37.195Z,34.69
2023-05-01T07:24:37.261Z,34.70
2023-05-01T07:25:37.285Z,34.72
2023-05-01T07:26:37.299Z,34.66
2023-05-01T07:27:37.404Z,34.68
2023-05-01T07:28:37.390Z,34.74
2023-05-01T07:29:37.445Z,34.70
2023-05-01T07:30:37.437Z,34.72
2023-05-01T07:31:37.498Z,34.67
2023-05-01T07:32:37.509Z,34.69
2023-05-01T07:33:37.541Z,34.70
2023-05-01T07:34:37.552Z,34.74
2023-05-01T07:35:37.592Z,34.70
2023-05-01T07:36:37.678Z,34.72
2023-05-01T07:37:37.938Z,34.72
2023-05-01T07:38:37.727Z,34.70
2023-05-01T07:39:37.707Z,34.70
2023-05-01T07:40:37.730Z,34.65
2023-05-01T07:41:37.785Z,34.67
2023-05-01T07:42:37.805Z,34.71
2023-05-01T07:43:37.835Z,34.68
2023-05-01T07:44:37.903Z,34.69
2023-05-01T07:45:37.975Z,34.69
2023-05-01T07:46:38.037Z,34.68
2023-05-01T07:47:37.967Z,34.68
2023-05-01T07:48:38.938Z,34.67
2023-05-01T07:49:37.982Z,34.68
2023-05-01T07:50:38.026Z,34.67
2023-05-01T07:51:38.039Z,34.70
2023-05-01T07:52:38.122Z,34.62
2023-05-01T07:53:38.128Z,34.63
2023-05-01T07:54:38.131Z,34.63
2023-05-01T07:55:38.226Z,34.65
2023-05-01T07:56:38.193Z,34.62
2023-05-01T07:57:38.314Z,34.61
2023-05-01T07:58:38.257Z,34.65
2023-05-01T07:59:38.270Z,34.59
2023-05-01T08:00:38.310Z,34.58
2023-05-01T08:01:38.355Z,34.58
2023-05-01T08:02:38.500Z,34.50
2023-05-01T08:03:38.557Z,34.49
2023-05-01T08:04:38.431Z,34.47
2023-05-01T08:05:38.436Z,34.49
2023-05-01T08:06:38.532Z,34.52
2023-05-01T08:07:38.483Z,34.48
2023-05-01T08:08:38.543Z,34.47
2023-05-01T08:09:38.493Z,34.50
2023-05-01T08:10:38.561Z,34.48
2023-05-01T08:11:38.588Z,34.43
2023-05-01T08:12:38.581Z,34.44
2023-05-01T08:13:38.632Z,34.42
2023-05-01T08:14:38.599Z,34.41
2023-05-01T08:15:38.667Z,34.40
2023-05-01T08:16:38.729Z,34.39
2023-05-01T08:17:38.784Z,34.37
2023-05-01T08:18:38.695Z,34.40
2023-05-01T08:19:38.709Z,34.38
2023-05-01T08:20:38.730Z,34.37
2023-05-01T08:21:38.756Z,34.36
2023-05-01T08:22:38.764Z,34.31
2023-05-01T08:23:38.779Z,34.37
2023-05-01T08:24:38.794Z,34.30
2023-05-01T08:25:38.816Z,34.30
2023-05-01T08:26:38.869Z,34.37
2023-05-01T08:27:38.858Z,34.36
2023-05-01T08:28:38.883Z,34.34
2023-05-01T08:29:38.906Z,34.35
2023-05-01T08:30:38.913Z,34.30
2023-05-01T08:31:38.969Z,34.35
2023-05-01T08:32:38.956Z,34.34
2023-05-01T08:33:38.940Z,34.30
2023-05-01T08:34:38.967Z,34.27
2023-05-01T08:35:38.965Z,34.31
2023-05-01T08:36:38.968Z,34.30
2023-05-01T08:37:39.001Z,34.29
2023-05-01T08:38:39.012Z,34.24
2023-05-01T08:39:39.029Z,34.21
2023-05-01T08:40:39.043Z,34.29
2023-05-01T08:41:39.017Z,34.29
2023-05-01T08:42:39.208Z,34.20
2023-05-01T08:43:39.057Z,34.20
2023-05-01T08:44:39.217Z,34.22
2023-05-01T08:45:39.060Z,34.18
2023-05-01T08:46:39.187Z,34.15
2023-05-01T08:47:39.150Z,34.19
2023-05-01T08:48:39.108Z,34.20
2023-05-01T08:49:39.120Z,34.29
2023-05-01T08:50:39.099Z,34.26
2023-05-01T08:51:39.102Z,34.31
2023-05-01T08:52:39.168Z,34.23
2023-05-01T08:53:39.131Z,34.31
2023-05-01T08:54:39.141Z,34.26
2023-05-01T08:55:39.173Z,34.26
2023-05-01T08:56:39.141Z,34.28
2023-05-01T08:57:39.168Z,34.30
2023-05-01T08:58:39.186Z,34.24
2023-05-01T08:59:39.146Z,34.20
2023-05-01T09:00:39.245Z,34.20
2023-05-01T09:01:39.192Z,34.21
2023-05-01T09:02:39.301Z,34.20
2023-05-01T09:03:39.228Z,34.19
2023-05-01T09:04:39.193Z,34.15
2023-05-01T09:05:39.197Z,34.14
2023-05-01T09:06:39.232Z,34.11
2023-05-01T09:07:39.191Z,34.15
2023-05-01T09:08:39.257Z,34.14
2023-05-01T09:09:39.188Z,34.10
2023-05-01T09:10:39.191Z,34.09
2023-05-01T09:11:39.226Z,34.09
2023-05-01T09:12:39.233Z,34.13
2023-05-01T09:13:39.200Z,34.12
2023-05-01T09:14:39.195Z,34.16
2023-05-01T09:15:39.210Z,34.16
2023-05-01T09:16:39.218Z,34.14
2023-05-01T09:17:39.206Z,34.12
2023-05-01T09:18:39.196Z,34.13
2023-05-01T09:19:39.174Z,34.17
2023-05-01T09:20:39.177Z,34.13
2023-05-01T09:21:39.237Z,34.17
2023-05-01T09:22:39.195Z,34.15
2023-05-01T09:23:39.179Z,34.20
2023-05-01T09:24:39.152Z,34.20
2023-05-01T09:25:39.163Z,34.21
2023-05-01T09:26:39.170Z,34.21
2023-05-01T09:27:39.187Z,34.17
2023-05-01T09:28:39.186Z,34.16
2023-05-01T09:29:39.223Z,34.16
2023-05-01T09:30:39.152Z,34.19
2023-05-01T09:31:39.169Z,34.20
2023-05-01T09:32:40.852Z,34.15
2023-05-01T09:33:39.129Z,34.14
2023-05-01T09:34:39.131Z,34.17
2023-05-01T09:35:39.129Z,34.12
2023-05-01T09:36:39.136Z,34.11
2023-05-01T09:37:39.102Z,34.16
2023-05-01T09:38:39.092Z,34.18
2023-05-01T09:39:39.095Z,34.18
2023-05-01T09:40:39.092Z,34.19
2023-05-01T09:41:39.100Z,34.13
2023-05-01T09:42:39.071Z,34.14
2023-05-01T09:43:39.090Z,34.14
2023-05-01T09:44:39.055Z,34.18
2023-05-01T09:45:39.076Z,34.15
2023-05-01T09:46:39.058Z,34.13
2023-05-01T09:47:39.056Z,34.17
2023-05-01T09:48:39.033Z,34.17
2023-05-01T09:49:39.046Z,34.17
2023-05-01T09:50:39.021Z,34.18
2023-05-01T09:51:39.025Z,34.14
2023-05-01T09:52:39.018Z,34.13
2023-05-01T09:53:39.011Z,34.14
2023-05-01T09:54:39.002Z,34.15
2023-05-01T09:55:39.019Z,34.14
2023-05-01T09:56:38.968Z,34.18
2023-05-01T09:57:38.997Z,34.14
2023-05-01T09:58:38.974Z,34.18
2023-05-01T09:59:38.951Z,34.18
2023-05-01T10:00:38.965Z,34.20
2023-05-01T10:01:38.986Z,34.16
2023-05-01T10:02:39.006Z,34.21
2023-05-01T10:03:39.193Z,34.17
2023-05-01T10:04:38.911Z,34.22
2023-05-01T10:05:38.905Z,34.17
2023-05-01T10:06:39.146Z,34.16
2023-05-01T10:07:38.948Z,34.21
2023-05-01T10:08:38.915Z,34.22
2023-05-01T10:09:38.905Z,34.17
2023-05-01T10:10:38.877Z,34.20
2023-05-01T10:11:38.896Z,34.21
2023-05-01T10:12:38.899Z,34.16
2023-05-01T10:13:38.873Z,34.21
2023-05-01T10:14:38.863Z,34.21
2023-05-01T10:15:38.868Z,34.14
2023-05-01T10:16:38.932Z,34.21
2023-05-01T10:17:38.895Z,34.18
2023-05-01T10:18:38.822Z,34.18
2023-05-01T10:19:38.808Z,34.22
2023-05-01T10:20:38.819Z,34.24
2023-05-01T10:21:38.847Z,34.21
2023-05-01T10:22:38.813Z,34.18
2023-05-01T10:23:38.779Z,34.24
2023-05-01T10:24:38.806Z,34.21
2023-05-01T10:25:38.765Z,34.24
2023-05-01T10:26:38.785Z,34.21
2023-05-01T10:27:38.801Z,34.21
2023-05-01T10:28:38.772Z,34.20
2023-05-01T10:29:38.766Z,34.17
2023-05-01T10:30:38.739Z,34.20
2023-05-01T10:31:40.706Z,34.23
2023-05-01T10:32:38.803Z,34.20
2023-05-01T10:33:38.810Z,34.22
2023-05-01T10:34:38.747Z,34.21
2023-05-01T10:35:38.715Z,34.22
2023-05-01T10:36:38.720Z,34.17
2023-05-01T10:37:38.690Z,34.21
2023-05-01T10:38:38.671Z,34.21
2023-05-01T10:39:38.721Z,34.21
2023-05-01T10:40:38.694Z,34.20
2023-05-01T10:41:38.677Z,34.26
2023-05-01T10:42:38.672Z,34.26
2023-05-01T10:43:38.654Z,34.29
2023-05-01T10:44:38.637Z,34.25
2023-05-01T10:45:38.632Z,34.22
2023-05-01T10:46:38.697Z,34.22
2023-05-01T10:47:38.629Z,34.30
2023-05-01T10:48:38.658Z,34.32
2023-05-01T10:49:38.613Z,34.28
2023-05-01T10:50:38.602Z,34.28
2023-05-01T10:51:38.584Z,34.33
2023-05-01T10:52:38.596Z,34.26
2023-05-01T10:53:38.578Z,34.32
2023-05-01T10:54:38.587Z,34.28
2023-05-01T10:55:38.570Z,34.22
2023-05-01T10:56:38.578Z,34.24
2023-05-01T10:57:38.593Z,34.24
2023-05-01T10:58:38.601Z,34.26
2023-05-01T10:59:38.568Z,34.25
2023-05-01T11:00:38.551Z,34.22
2023-05-01T11:01:38.645Z,34.25
2023-05-01T11:02:38.584Z,34.24
2023-05-01T11:03:38.503Z,34.27
2023-05-01T11:04:38.507Z,34.29
2023-05-01T11:05:38.899Z,34.25
2023-05-01T11:06:38.648Z,34.29
2023-05-01T11:07:38.524Z,34.28
2023-05-01T11:08:38.682Z,34.24
2023-05-01T11:09:38.463Z,34.25
2023-05-01T11:10:38.476Z,34.27
2023-05-01T11:11:38.579Z,34.36
2023-05-01T11:12:38.630Z,34.34
2023-05-01T11:13:38.640Z,34.38
2023-05-01T11:14:38.688Z,34.32
2023-05-01T11:15:38.758Z,34.33
2023-05-01T11:16:39.033Z,34.33
2023-05-01T11:17:38.936Z,34.35
2023-05-01T11:18:38.919Z,34.33
2023-05-01T11:19:38.992Z,34.37
2023-05-01T11:20:39.041Z,34.36
2023-05-01T11:21:39.140Z,34.37
2023-05-01T11:22:39.165Z,34.39
2023-05-01T11:23:39.207Z,34.37
2023-05-01T11:24:39.327Z,34.36
2023-05-01T11:25:39.362Z,34.38
2023-05-01T11:26:39.408Z,34.31
2023-05-01T11:27:39.451Z,34.33
2023-05-01T11:28:39.506Z,34.37
2023-05-01T11:29:39.584Z,34.40
2023-05-01T11:30:39.654Z,34.37
2023-05-01T11:31:39.734Z,34.33
2023-05-01T11:32:39.748Z,34.37
2023-05-01T11:33:39.742Z,34.33
2023-05-01T11:34:39.803Z,34.33
2023-05-01T11:35:39.825Z,34.35
2023-05-01T11:36:39.878Z,34.35
2023-05-01T11:37:39.928Z,34.43
2023-05-01T11:38:39.932Z,34.37
2023-05-01T11:39:39.982Z,34.38
2023-05-01T11:40:40.054Z,34.38
2023-05-01T11:41:40.079Z,34.38
2023-05-01T11:42:40.181Z,34.38
2023-05-01T11:43:40.222Z,34.36
2023-05-01T11:44:40.247Z,34.42
2023-05-01T11:45:40.324Z,34.46
2023-05-01T11:46:40.348Z,34.45
2023-05-01T11:47:40.451Z,34.46
2023-05-01T11:48:40.478Z,34.46
2023-05-01T11:49:40.492Z,34.45
2023-05-01T11:50:40.549Z,34.49
2023-05-01T11:51:40.625Z,34.51
2023-05-01T11:52:40.649Z,34.52
2023-05-01T11:53:40.749Z,34.54
2023-05-01T11:54:40.776Z,34.51
2023-05-01T11:55:40.865Z,34.48
2023-05-01T11:56:40.906Z,34.54
2023-05-01T11:57:40.929Z,34.52
2023-05-01T11:58:40.995Z,34.58
2023-05-01T11:59:41.019Z,34.57
2023-05-01T12:00:41.067Z,34.55
2023-05-01T12:01:41.161Z,34.57
2023-05-01T12:02:41.246Z,34.58
2023-05-01T12:03:41.371Z,34.57
2023-05-01T12:04:41.367Z,34.60
2023-05-01T12:05:41.323Z,34.59
2023-05-01T12:06:41.429Z,34.61
2023-05-01T12:07:41.406Z,34.60
2023-05-01T12:08:41.476Z,34.62
2023-05-01T12:09:41.460Z,34.66
2023-05-01T12:10:41.487Z,34.64
2023-05-01T12:11:41.529Z,34.62
2023-05-01T12:12:41.548Z,34.64
2023-05-01T12:13:41.578Z,34.66
2023-05-01T12:14:41.631Z,34.70
2023-05-01T12:15:41.662Z,34.70
2023-05-01T12:16:41.697Z,34.69
2023-05-01T12:17:41.793Z,34.69
2023-05-01T12:18:41.759Z,34.65
2023-05-01T12:19:41.757Z,34.60
2023-05-01T12:20:41.798Z,34.61
2023-05-01T12:21:41.833Z,34.62
2023-05-01T12:22:41.906Z,34.62
2023-05-01T12:23:41.926Z,34.60
2023-05-01T12:24:42.004Z,34.63
2023-05-01T12:25:42.018Z,34.64
2023-05-01T12:26:42.092Z,34.56
2023-05-01T12:27:42.082Z,34.59
2023-05-01T12:28:42.139Z,34.60
2023-05-01T12:29:42.234Z,34.62
2023-05-01T12:30:42.214Z,34.56
2023-05-01T12:31:42.314Z,34.59
2023-05-01T12:32:42.354Z,34.56
2023-05-01T12:33:42.357Z,34.60
2023-05-01T12:34:42.413Z,34.60
2023-05-01T12:35:42.496Z,34.60
2023-05-01T12:36:42.512Z,34.62
2023-05-01T12:37:42.582Z,34.57
2023-05-01T12:38:42.661Z,34.61
2023-05-01T12:39:42.697Z,34.63
2023-05-01T12:40:42.728Z,34.59
2023-05-01T12:41:42.786Z,34.57
2023-05-01T12:42:42.865Z,34.57
2023-05-01T12:43:44.437Z,34.59
2023-05-01T12:44:42.998Z,34.59
2023-05-01T12:45:43.038Z,34.58
2023-05-01T12:46:43.144Z,34.66
2023-05-01T12:47:43.196Z,34.59
2023-05-01T12:48:43.240Z,34.54
2023-05-01T12:49:43.278Z,34.54
2023-05-01T12:50:44.021Z,34.56
2023-05-01T12:51:43.393Z,34.56
2023-05-01T12:52:43.461Z,34.56